Time;durP1;ratioP1;P1;durP2;ratioP2;P2;SDS_P1;SDS_P2;PMS_P1;PMS_P2;Temp;Humidity;BMP_temperature;BMP_pressure;BME280_temperature;BME280_humidity;BME280_pressure;Samples;Min_cycle;Max_cycle;Signal;HPM_P1;HPM_P2
2020/12/18 00:01:09;;;;;;;14.37;12.97;;;5.00;85.40;;;;;;5076724;28;20169;-94
2020/12/18 00:03:35;;;;;;;12.13;11.00;;;5.00;84.50;;;;;;5078014;28;20188;-95
2020/12/18 00:06:02;;;;;;;13.53;12.00;;;4.90;85.80;;;;;;5058931;22;20243;-92
2020/12/18 00:08:27;;;;;;;13.80;12.37;;;4.90;86.90;;;;;;5072016;28;20197;-93
2020/12/18 00:10:53;;;;;;;12.67;11.50;;;4.90;87.70;;;;;;5044784;28;20177;-93
2020/12/18 00:13:19;;;;;;;14.37;11.53;;;5.00;86.80;;;;;;5027779;28;20592;-92
2020/12/18 00:15:50;;;;;;;11.67;10.73;;;5.00;84.60;;;;;;5044581;28;20200;-93
2020/12/18 00:18:16;;;;;;;12.27;11.20;;;4.90;85.70;;;;;;5018437;28;20551;-93
2020/12/18 00:20:44;;;;;;;11.77;10.67;;;4.90;85.60;;;;;;5045163;28;20252;-93
2020/12/18 00:23:13;;;;;;;12.53;11.23;;;4.80;86.40;;;;;;5046203;28;20236;-93
2020/12/18 00:25:39;;;;;;;11.60;10.53;;;4.80;86.50;;;;;;5045053;28;20185;-93
2020/12/18 00:28:05;;;;;;;12.57;11.37;;;4.80;86.30;;;;;;5027003;28;20217;-93
2020/12/18 00:30:33;;;;;;;11.30;10.30;;;4.80;86.20;;;;;;5058302;28;20274;-92
2020/12/18 00:32:59;;;;;;;12.23;11.10;;;4.80;85.50;;;;;;5030747;28;20208;-93
2020/12/18 00:35:28;;;;;;;12.10;11.03;;;4.90;85.70;;;;;;5077562;28;20211;-93
2020/12/18 00:37:54;;;;;;;12.03;10.83;;;4.80;85.40;;;;;;5045689;28;20205;-94
2020/12/18 00:40:20;;;;;;;11.40;10.40;;;4.80;86.10;;;;;;5044858;28;20177;-93
2020/12/18 00:42:47;;;;;;;12.00;11.00;;;4.80;86.10;;;;;;5045405;28;20247;-93
2020/12/18 00:45:17;;;;;;;12.07;10.97;;;4.70;85.80;;;;;;5076905;28;20212;-93
2020/12/18 00:47:43;;;;;;;11.97;10.60;;;4.70;86.20;;;;;;5045852;28;20201;-93
2020/12/18 00:50:09;;;;;;;11.40;10.33;;;4.70;85.70;;;;;;5015103;28;20200;-94
2020/12/18 00:52:38;;;;;;;11.87;10.77;;;4.80;85.70;;;;;;5057948;28;20576;-93
2020/12/18 00:55:13;;;;;;;12.50;11.30;;;4.70;85.40;;;;;;5058248;28;20182;-93
2020/12/18 00:57:42;;;;;;;12.37;11.23;;;4.70;84.90;;;;;;5057716;28;20205;-93
2020/12/18 01:00:08;;;;;;;12.60;11.43;;;4.60;85.70;;;;;;5024851;28;20177;-93
2020/12/18 01:02:35;;;;;;;14.53;13.13;;;4.40;85.20;;;;;;5025860;28;20178;-93
2020/12/18 01:05:01;;;;;;;12.73;11.53;;;4.30;85.30;;;;;;5063655;28;20204;-93
2020/12/18 01:07:27;;;;;;;13.00;11.77;;;4.30;87.30;;;;;;5078049;28;20567;-93
2020/12/18 01:09:56;;;;;;;12.40;11.30;;;4.40;87.90;;;;;;5045391;28;20177;-93
2020/12/18 01:12:29;;;;;;;12.70;11.50;;;4.50;88.20;;;;;;5045033;28;20600;-93
2020/12/18 01:14:58;;;;;;;13.77;12.33;;;4.60;88.00;;;;;;5077672;28;20215;-93
2020/12/18 01:17:24;;;;;;;11.93;10.73;;;4.60;87.90;;;;;;5043841;28;20208;-94
2020/12/18 01:19:57;;;;;;;11.63;10.67;;;4.60;86.90;;;;;;5076764;28;20633;-92
2020/12/18 01:22:26;;;;;;;13.23;11.90;;;4.70;87.10;;;;;;5043868;28;20243;-93
2020/12/18 01:24:54;;;;;;;11.27;10.27;;;4.60;86.60;;;;;;5045141;28;20184;-93
2020/12/18 01:27:20;;;;;;;12.00;10.80;;;4.60;85.50;;;;;;5047381;28;20209;-93
2020/12/18 01:29:48;;;;;;;11.47;10.47;;;4.50;85.30;;;;;;5044307;28;20227;-92
2020/12/18 01:32:17;;;;;;;11.17;10.13;;;4.50;86.30;;;;;;5043604;28;20192;-93
2020/12/18 01:34:57;;;;;;;11.43;10.33;;;4.40;85.90;;;;;;5043443;28;20731;-93
2020/12/18 01:37:28;;;;;;;12.70;10.70;;;4.50;85.50;;;;;;5043037;28;20288;-93
2020/12/18 01:39:56;;;;;;;12.40;11.17;;;4.40;85.40;;;;;;5042371;28;20184;-94
2020/12/18 01:42:24;;;;;;;11.93;10.93;;;4.40;84.50;;;;;;5042169;28;20279;-94
2020/12/18 01:44:50;;;;;;;11.90;10.77;;;4.30;84.10;;;;;;5039902;28;20233;-93
2020/12/18 01:47:28;;;;;;;11.80;10.70;;;4.20;83.60;;;;;;5023631;28;20205;-93
2020/12/18 01:49:55;;;;;;;11.33;10.23;;;4.10;84.90;;;;;;5055759;28;20209;-93
2020/12/18 01:52:24;;;;;;;10.27;9.37;;;4.10;85.50;;;;;;5055335;28;20217;-93
2020/12/18 01:54:55;;;;;;;11.23;10.13;;;4.10;84.80;;;;;;5055468;28;20190;-93
2020/12/18 01:57:23;;;;;;;11.63;10.60;;;4.10;85.30;;;;;;5055250;28;20205;-93
2020/12/18 01:59:49;;;;;;;11.83;10.63;;;4.00;85.40;;;;;;5024132;28;20242;-93
2020/12/18 02:02:16;;;;;;;11.80;10.70;;;3.90;85.90;;;;;;5023391;28;20178;-94
2020/12/18 02:04:46;;;;;;;10.23;9.23;;;4.00;86.00;;;;;;5023520;28;21192;-92
2020/12/18 02:07:13;;;;;;;10.53;9.63;;;4.10;85.70;;;;;;5022275;28;20573;-93
2020/12/18 02:09:39;;;;;;;10.90;9.83;;;4.10;85.80;;;;;;5023726;28;20189;-92
2020/12/18 02:12:06;;;;;;;10.53;9.53;;;4.20;84.60;;;;;;5027391;28;20181;-93
2020/12/18 02:14:32;;;;;;;11.03;10.07;;;4.10;84.50;;;;;;5026303;28;20186;-93
2020/12/18 02:16:58;;;;;;;10.33;9.47;;;4.10;84.80;;;;;;5027356;28;20225;-93
2020/12/18 02:19:27;;;;;;;10.77;9.77;;;4.10;85.10;;;;;;5040179;28;20181;-93
2020/12/18 02:21:53;;;;;;;10.40;9.53;;;4.20;85.10;;;;;;5047995;28;20173;-93
2020/12/18 02:24:26;;;;;;;10.03;9.17;;;4.10;84.20;;;;;;5076920;28;20208;-93
2020/12/18 02:26:56;;;;;;;10.73;9.83;;;4.20;83.90;;;;;;5044066;28;20216;-93
2020/12/18 02:29:22;;;;;;;11.30;10.30;;;4.10;83.60;;;;;;5075336;28;20200;-94
2020/12/18 02:31:49;;;;;;;10.83;9.93;;;4.00;84.30;;;;;;5041770;28;20181;-93
2020/12/18 02:34:25;;;;;;;10.80;9.87;;;3.90;85.90;;;;;;5042933;28;20750;-93
2020/12/18 02:36:51;;;;;;;12.03;10.93;;;3.90;85.80;;;;;;5075136;28;20610;-93
2020/12/18 02:39:17;;;;;;;11.47;10.47;;;3.90;85.70;;;;;;5042024;28;20256;-93
2020/12/18 02:41:43;;;;;;;11.83;10.77;;;4.00;85.50;;;;;;5041328;28;20204;-94
2020/12/18 02:44:09;;;;;;;10.30;9.40;;;3.90;84.30;;;;;;5074842;28;20247;-93
2020/12/18 02:46:35;;;;;;;11.33;10.23;;;3.90;84.50;;;;;;5042389;28;20197;-93
2020/12/18 02:49:01;;;;;;;10.80;9.73;;;3.90;84.50;;;;;;5055865;28;20607;-93
2020/12/18 02:51:27;;;;;;;10.17;9.17;;;3.90;84.40;;;;;;5023163;28;20208;-93
2020/12/18 02:53:52;;;;;;;10.47;9.53;;;3.80;83.50;;;;;;5023080;28;20205;-93
2020/12/18 02:56:25;;;;;;;12.27;11.17;;;3.70;84.20;;;;;;5022228;28;20174;-93
2020/12/18 02:58:51;;;;;;;10.90;9.77;;;3.70;84.80;;;;;;5022789;28;20184;-93
2020/12/18 03:01:17;;;;;;;11.07;10.07;;;3.70;85.20;;;;;;5023545;28;20174;-93
2020/12/18 03:03:43;;;;;;;12.63;11.53;;;3.70;86.00;;;;;;5040486;28;20649;-93
2020/12/18 03:06:09;;;;;;;11.50;10.50;;;3.80;86.00;;;;;;5074164;28;20208;-93
2020/12/18 03:08:35;;;;;;;10.50;9.50;;;3.80;85.60;;;;;;5041070;28;20196;-93
2020/12/18 03:11:00;;;;;;;11.27;10.23;;;3.70;86.00;;;;;;5075049;28;20518;-93
2020/12/18 03:13:26;;;;;;;9.47;8.67;;;3.70;85.50;;;;;;5043413;28;20263;-93
2020/12/18 03:15:52;;;;;;;10.30;9.40;;;3.70;84.60;;;;;;5080873;28;20695;-93
2020/12/18 03:18:18;;;;;;;10.70;9.80;;;3.70;85.10;;;;;;5045367;28;20687;-93
2020/12/18 03:20:43;;;;;;;10.27;9.37;;;3.70;83.90;;;;;;5045169;28;20240;-93
2020/12/18 03:23:09;;;;;;;11.63;10.30;;;3.50;82.70;;;;;;5059123;28;20204;-93
2020/12/18 03:25:35;;;;;;;10.20;9.40;;;3.40;83.50;;;;;;5047128;28;20591;-93
2020/12/18 03:28:02;;;;;;;10.20;9.30;;;3.20;85.30;;;;;;5046832;28;20227;-93
2020/12/18 03:30:29;;;;;;;10.73;9.83;;;3.30;86.00;;;;;;5047105;28;20185;-93
2020/12/18 03:32:56;;;;;;;10.20;9.23;;;3.40;86.30;;;;;;5046764;28;20855;-92
2020/12/18 03:35:22;;;;;;;10.77;9.87;;;3.30;83.90;;;;;;5079013;28;20231;-93
2020/12/18 03:37:51;;;;;;;9.87;8.97;;;3.20;84.20;;;;;;5045286;28;20216;-93
2020/12/18 03:40:17;;;;;;;10.33;9.33;;;3.00;85.90;;;;;;5046707;28;20237;-93
2020/12/18 03:42:43;;;;;;;10.57;9.13;;;3.10;87.30;;;;;;5046392;28;20185;-93
2020/12/18 03:45:09;;;;;;;10.17;9.27;;;3.10;87.20;;;;;;5045421;28;20204;-93
2020/12/18 03:47:35;;;;;;;9.63;8.73;;;3.20;86.00;;;;;;5044787;28;20313;-91
2020/12/18 03:50:01;;;;;;;9.70;8.80;;;3.30;85.90;;;;;;5046439;28;20182;-93
2020/12/18 03:52:31;;;;;;;9.13;8.33;;;3.20;84.90;;;;;;5079280;28;20700;-93
2020/12/18 03:54:57;;;;;;;8.90;7.77;;;3.30;85.40;;;;;;5061062;28;20658;-92
2020/12/18 03:57:23;;;;;;;9.17;8.37;;;3.30;83.20;;;;;;5078495;28;20254;-93
2020/12/18 03:59:48;;;;;;;8.77;8.03;;;3.30;85.20;;;;;;5046774;28;20223;-92
2020/12/18 04:02:14;;;;;;;9.90;9.00;;;3.30;85.00;;;;;;5078348;28;20185;-93
2020/12/18 04:04:40;;;;;;;9.20;8.30;;;3.30;84.10;;;;;;5030580;28;20198;-93
2020/12/18 04:07:07;;;;;;;8.33;7.20;;;3.20;84.80;;;;;;5026062;28;20267;-92
2020/12/18 04:09:32;;;;;;;8.73;7.93;;;3.30;85.00;;;;;;5024865;28;20201;-90
2020/12/18 04:11:59;;;;;;;8.80;7.90;;;3.20;83.90;;;;;;5026172;28;20189;-92
2020/12/18 04:14:24;;;;;;;8.27;7.47;;;3.20;85.10;;;;;;5026441;28;20217;-91
2020/12/18 04:16:50;;;;;;;8.00;7.23;;;3.20;84.70;;;;;;5026342;28;20208;-93
2020/12/18 04:19:17;;;;;;;8.77;7.97;;;3.20;84.50;;;;;;5038083;28;20189;-91
2020/12/18 04:21:43;;;;;;;9.77;7.63;;;3.30;84.00;;;;;;5077680;28;20197;-92
2020/12/18 04:24:09;;;;;;;9.07;8.27;;;3.20;83.70;;;;;;5044475;28;20220;-92
2020/12/18 04:26:34;;;;;;;8.40;7.67;;;3.20;84.40;;;;;;5044039;28;20724;-92
2020/12/18 04:29:00;;;;;;;10.50;7.70;;;3.20;84.20;;;;;;5045487;28;20885;-92
2020/12/18 04:31:27;;;;;;;9.23;8.33;;;3.10;84.20;;;;;;5045697;28;20192;-92
2020/12/18 04:33:53;;;;;;;8.53;7.73;;;3.00;83.70;;;;;;5078052;28;20228;-91
2020/12/18 04:36:18;;;;;;;8.77;8.07;;;3.10;84.50;;;;;;5075392;28;20188;-91
2020/12/18 04:38:46;;;;;;;9.27;8.27;;;3.10;84.60;;;;;;5045359;28;20181;-92
2020/12/18 04:41:11;;;;;;;9.57;8.67;;;3.10;83.90;;;;;;5045495;28;20185;-92
2020/12/18 04:43:38;;;;;;;9.47;8.67;;;3.20;84.70;;;;;;5035303;28;20212;-93
2020/12/18 04:46:09;;;;;;;9.17;8.33;;;3.10;84.90;;;;;;5025122;28;20593;-92
2020/12/18 04:48:36;;;;;;;9.00;8.20;;;3.20;85.00;;;;;;5057034;28;20177;-91
2020/12/18 04:51:03;;;;;;;10.57;9.67;;;3.20;84.90;;;;;;5026786;28;20200;-90
2020/12/18 04:53:33;;;;;;;9.50;8.60;;;3.20;84.50;;;;;;5025175;28;20205;-92
2020/12/18 04:56:08;;;;;;;9.33;8.47;;;3.30;84.60;;;;;;5056864;28;20217;-91
2020/12/18 04:58:36;;;;;;;9.17;8.37;;;3.00;82.70;;;;;;5025326;28;20178;-92
2020/12/18 05:01:02;;;;;;;10.83;9.83;;;3.00;85.10;;;;;;5058010;28;20185;-91
2020/12/18 05:03:32;;;;;;;13.53;11.50;;;2.90;84.70;;;;;;5029066;28;20194;-92
2020/12/18 05:06:04;;;;;;;13.10;10.47;;;3.00;85.60;;;;;;5059518;28;20197;-92
2020/12/18 05:08:31;;;;;;;10.53;9.53;;;3.10;85.60;;;;;;5060653;28;20266;-91
2020/12/18 05:10:57;;;;;;;10.43;9.47;;;3.00;84.40;;;;;;5077092;28;20185;-92
2020/12/18 05:13:25;;;;;;;11.17;10.07;;;3.00;85.30;;;;;;5076857;28;20276;-92
2020/12/18 05:15:52;;;;;;;11.47;10.27;;;3.00;85.30;;;;;;5045284;28;20184;-92
2020/12/18 05:18:24;;;;;;;10.70;9.70;;;3.00;85.40;;;;;;5044830;28;20575;-93
2020/12/18 05:20:50;;;;;;;10.57;9.67;;;3.10;85.90;;;;;;5043917;28;20185;-94
2020/12/18 05:23:16;;;;;;;11.37;10.27;;;3.10;85.50;;;;;;5027680;28;20185;-91
2020/12/18 05:25:42;;;;;;;10.77;9.87;;;3.10;85.60;;;;;;5070094;28;20261;-91
2020/12/18 05:28:18;;;;;;;11.37;10.37;;;3.10;85.20;;;;;;5024067;28;20214;-91
2020/12/18 05:30:46;;;;;;;9.67;8.77;;;3.00;84.50;;;;;;5022564;28;20169;-91
2020/12/18 05:33:13;;;;;;;10.57;9.67;;;3.00;85.70;;;;;;5024115;28;20209;-91
2020/12/18 05:35:39;;;;;;;10.33;9.33;;;3.10;86.10;;;;;;5029581;28;20211;-91
2020/12/18 05:38:05;;;;;;;10.33;9.37;;;3.10;85.70;;;;;;5041777;28;20235;-91
2020/12/18 05:40:32;;;;;;;9.83;8.93;;;3.00;85.40;;;;;;5043291;28;20194;-91
2020/12/18 05:43:04;;;;;;;9.47;8.67;;;2.90;84.90;;;;;;5042365;28;20600;-91
2020/12/18 05:45:30;;;;;;;10.70;9.70;;;2.90;85.80;;;;;;5066968;28;20186;-90
2020/12/18 05:48:00;;;;;;;10.63;9.73;;;3.00;86.60;;;;;;5023570;28;20212;-90
2020/12/18 05:50:27;;;;;;;31.60;23.77;;;3.00;86.90;;;;;;5024224;28;20189;-91
2020/12/18 05:52:55;;;;;;;21.33;19.10;;;3.00;86.10;;;;;;5022460;28;20210;-90
2020/12/18 05:55:22;;;;;;;27.27;23.50;;;2.90;86.90;;;;;;5024633;28;20185;-91
2020/12/18 05:57:48;;;;;;;16.50;14.23;;;2.90;87.80;;;;;;5042209;28;20204;-92
2020/12/18 06:00:14;;;;;;;29.93;14.10;;;2.90;86.50;;;;;;5042937;28;20185;-91
2020/12/18 06:02:46;;;;;;;28.63;12.60;;;2.80;85.90;;;;;;5076234;28;20192;-91
2020/12/18 06:05:14;;;;;;;9.97;9.07;;;2.80;86.80;;;;;;5075832;28;20196;-91
2020/12/18 06:07:41;;;;;;;11.80;9.20;;;2.80;87.00;;;;;;5044249;28;20201;-92
2020/12/18 06:10:07;;;;;;;9.97;9.00;;;2.80;85.50;;;;;;5043322;28;20254;-91
2020/12/18 06:12:33;;;;;;;9.90;9.10;;;2.80;86.50;;;;;;5044003;28;20776;-91
2020/12/18 06:15:01;;;;;;;11.40;9.30;;;2.80;86.10;;;;;;5075782;28;20192;-91
2020/12/18 06:17:28;;;;;;;27.83;9.93;;;2.80;86.00;;;;;;5076010;28;20205;-92
2020/12/18 06:19:58;;;;;;;10.40;9.40;;;2.50;83.60;;;;;;5042286;28;20177;-92
2020/12/18 06:22:24;;;;;;;10.40;9.40;;;2.30;87.90;;;;;;5046978;28;20193;-92
2020/12/18 06:24:50;;;;;;;11.03;10.00;;;2.40;88.90;;;;;;5024374;28;20185;-90
2020/12/18 06:27:17;;;;;;;10.07;9.17;;;2.60;88.20;;;;;;5024854;28;20201;-92
2020/12/18 06:29:44;;;;;;;8.97;8.17;;;2.60;88.30;;;;;;5023615;28;20186;-92
2020/12/18 06:32:26;;;;;;;11.23;8.73;;;2.70;88.50;;;;;;5025144;28;20316;-93
2020/12/18 06:35:25;;;;;;;10.47;8.67;;;2.80;87.90;;;;;;5024873;28;20184;-93
2020/12/18 06:37:51;;;;;;;28.53;9.27;;;2.80;86.80;;;;;;5057790;28;20198;-94
2020/12/18 06:40:31;;;;;;;10.60;9.50;;;2.60;85.30;;;;;;5007795;28;20185;-94
2020/12/18 06:42:59;;;;;;;20.33;9.33;;;2.30;86.10;;;;;;5055623;28;20208;-92
2020/12/18 06:45:28;;;;;;;10.07;8.90;;;2.20;87.30;;;;;;5055074;28;20185;-90
2020/12/18 06:47:54;;;;;;;9.60;8.80;;;2.10;88.40;;;;;;5069010;28;20205;-89
2020/12/18 06:50:21;;;;;;;9.43;8.63;;;2.10;89.70;;;;;;5043866;28;20251;-90
2020/12/18 06:52:51;;;;;;;9.53;8.67;;;2.30;89.80;;;;;;5045863;28;20204;-90
2020/12/18 06:55:36;;;;;;;11.20;8.47;;;2.30;88.40;;;;;;5041203;28;20237;-88
2020/12/18 06:58:19;;;;;;;9.00;8.20;;;2.30;88.10;;;;;;5058259;28;20212;-89
2020/12/18 07:00:56;;;;;;;9.07;8.30;;;2.40;88.90;;;;;;5026052;28;20209;-90
2020/12/18 07:03:32;;;;;;;9.27;8.33;;;2.50;88.70;;;;;;5027212;28;20174;-90
2020/12/18 07:06:02;;;;;;;9.37;8.47;;;2.40;87.70;;;;;;5035692;28;20283;-88
2020/12/18 07:08:31;;;;;;;10.53;9.53;;;2.50;88.50;;;;;;5026686;28;20197;-90
2020/12/18 07:11:02;;;;;;;9.80;9.00;;;2.50;87.70;;;;;;5027233;28;20177;-89
2020/12/18 07:13:30;;;;;;;19.90;9.33;;;2.60;88.70;;;;;;5025718;28;20673;-89
2020/12/18 07:16:08;;;;;;;10.20;9.10;;;2.50;88.50;;;;;;5025159;28;20192;-89
2020/12/18 07:18:41;;;;;;;9.90;8.90;;;2.60;88.30;;;;;;5026739;28;20177;-88
2020/12/18 07:21:12;;;;;;;33.50;10.10;;;2.70;88.40;;;;;;5026337;28;20226;-89
2020/12/18 07:23:43;;;;;;;9.87;8.97;;;2.60;85.70;;;;;;5059182;28;20185;-90
2020/12/18 07:26:12;;;;;;;10.37;9.37;;;2.50;88.90;;;;;;5057642;28;20181;-89
2020/12/18 07:28:39;;;;;;;12.53;9.70;;;2.50;88.90;;;;;;5045287;28;20192;-89
2020/12/18 07:31:27;;;;;;;10.33;9.33;;;2.50;89.00;;;;;;5043789;28;20193;-89
2020/12/18 07:33:57;;;;;;;59.60;11.37;;;2.50;90.00;;;;;;5046255;28;20220;-89
2020/12/18 07:36:24;;;;;;;9.97;8.97;;;2.40;88.60;;;;;;5045604;28;20585;-90
2020/12/18 07:38:51;;;;;;;8.83;8.03;;;2.50;90.60;;;;;;5045673;28;20208;-89
2020/12/18 07:41:17;;;;;;;10.17;9.27;;;2.60;90.70;;;;;;5044491;28;20185;-88
2020/12/18 07:43:45;;;;;;;10.17;9.07;;;2.70;90.40;;;;;;5061377;28;20191;-90
2020/12/18 07:46:13;;;;;;;9.67;8.77;;;2.80;89.90;;;;;;5028418;28;20193;-89
2020/12/18 07:48:41;;;;;;;19.37;10.73;;;2.90;89.50;;;;;;5025458;28;20269;-89
2020/12/18 07:51:18;;;;;;;11.50;10.30;;;2.90;88.70;;;;;;5035251;28;20172;-87
2020/12/18 07:53:44;;;;;;;12.30;10.77;;;2.90;88.50;;;;;;5044126;28;20196;-88
2020/12/18 07:56:14;;;;;;;25.20;11.07;;;2.80;88.30;;;;;;5070244;28;20185;-89
2020/12/18 07:58:56;;;;;;;12.17;10.70;;;2.70;87.90;;;;;;5077993;28;20208;-88
2020/12/18 08:01:23;;;;;;;14.60;10.33;;;2.60;88.30;;;;;;5035572;28;20170;-88
2020/12/18 08:03:57;;;;;;;23.60;10.70;;;2.50;88.70;;;;;;5035300;28;20196;-89
2020/12/18 08:06:25;;;;;;;23.53;9.93;;;2.40;88.90;;;;;;5063873;28;20201;-89
2020/12/18 08:09:03;;;;;;;11.47;10.23;;;2.30;89.70;;;;;;5042098;28;20177;-90
2020/12/18 08:11:31;;;;;;;16.00;11.17;;;2.50;92.20;;;;;;5041953;28;20848;-89
2020/12/18 08:13:59;;;;;;;15.57;10.40;;;2.50;90.90;;;;;;5043289;28;20308;-86
2020/12/18 08:16:28;;;;;;;13.67;10.43;;;2.60;90.40;;;;;;5014966;28;20189;-85
2020/12/18 08:18:58;;;;;;;11.60;10.20;;;2.60;91.00;;;;;;5074057;28;20177;-85
2020/12/18 08:21:31;;;;;;;15.33;10.03;;;2.60;90.60;;;;;;5025482;28;20196;-85
2020/12/18 08:24:23;;;;;;;34.10;11.63;;;2.70;90.20;;;;;;5036769;28;20189;-85
2020/12/18 08:27:10;;;;;;;13.60;9.53;;;2.50;90.70;;;;;;5031730;28;20201;-85
2020/12/18 08:29:38;;;;;;;10.20;8.97;;;2.70;91.20;;;;;;5069070;28;20193;-84
2020/12/18 08:32:05;;;;;;;8.70;7.37;;;2.60;90.10;;;;;;5024116;28;20736;-85
2020/12/18 08:34:33;;;;;;;11.07;7.40;;;2.60;89.60;;;;;;5027374;28;20280;-86
2020/12/18 08:37:00;;;;;;;8.10;7.30;;;2.40;88.80;;;;;;5064124;28;20198;-86
2020/12/18 08:39:31;;;;;;;8.00;7.23;;;2.20;90.30;;;;;;5035194;28;20280;-86
2020/12/18 08:41:56;;;;;;;14.37;8.10;;;2.20;90.40;;;;;;5061655;28;20239;-86
2020/12/18 08:44:29;;;;;;;9.93;7.57;;;2.00;90.20;;;;;;5033694;28;20185;-86
2020/12/18 08:46:56;;;;;;;9.03;8.07;;;1.90;91.70;;;;;;5041980;28;20205;-86
2020/12/18 08:49:27;;;;;;;9.60;8.67;;;1.80;92.70;;;;;;5070334;28;20189;-87
2020/12/18 08:52:03;;;;;;;8.20;7.43;;;1.90;92.30;;;;;;5035955;28;20177;-86
2020/12/18 08:54:32;;;;;;;11.03;8.63;;;1.90;93.60;;;;;;5027576;28;20189;-85
2020/12/18 08:57:27;;;;;;;11.03;9.27;;;2.00;92.60;;;;;;5025155;28;20561;-87
2020/12/18 09:00:04;;;;;;;20.83;9.47;;;2.20;91.90;;;;;;5042846;28;20551;-85
2020/12/18 09:02:32;;;;;;;8.97;8.07;;;2.20;91.20;;;;;;5029073;28;20278;-86
2020/12/18 09:05:10;;;;;;;8.07;7.27;;;2.30;92.40;;;;;;5067646;28;20201;-87
2020/12/18 09:07:41;;;;;;;10.00;8.87;;;2.60;90.60;;;;;;5040125;28;20256;-86
2020/12/18 09:10:08;;;;;;;9.23;8.27;;;2.70;88.80;;;;;;5034174;28;20174;-87
2020/12/18 09:12:42;;;;;;;9.33;8.43;;;2.70;88.60;;;;;;5019708;28;20209;-86
2020/12/18 09:15:21;;;;;;;9.03;8.00;;;2.70;88.50;;;;;;5019017;28;20247;-87
2020/12/18 09:17:56;;;;;;;9.37;8.03;;;2.70;88.70;;;;;;5019132;28;20220;-86
2020/12/18 09:20:34;;;;;;;11.73;8.17;;;2.60;89.40;;;;;;5020778;28;20623;-86
2020/12/18 09:23:05;;;;;;;11.60;8.67;;;2.50;91.30;;;;;;5026417;28;20676;-86
2020/12/18 09:25:35;;;;;;;10.40;8.33;;;2.50;92.00;;;;;;5030053;28;20665;-86
2020/12/18 09:28:01;;;;;;;10.63;8.67;;;2.60;91.20;;;;;;5041235;28;20245;-87
2020/12/18 09:30:29;;;;;;;21.40;8.17;;;2.70;91.50;;;;;;5063832;28;20257;-86
2020/12/18 09:33:15;;;;;;;10.27;8.70;;;2.70;91.40;;;;;;5025805;28;20209;-87
2020/12/18 09:35:44;;;;;;;9.20;8.20;;;2.80;91.40;;;;;;5042298;28;20592;-86
2020/12/18 09:38:11;;;;;;;10.53;9.43;;;3.00;91.10;;;;;;5040734;28;20209;-86
2020/12/18 09:40:38;;;;;;;11.10;9.20;;;3.10;90.70;;;;;;5037466;28;20188;-85
2020/12/18 09:43:04;;;;;;;14.17;10.20;;;3.10;90.60;;;;;;5022231;28;20197;-85
2020/12/18 09:45:29;;;;;;;11.27;9.80;;;3.20;90.30;;;;;;5023177;28;20193;-86
2020/12/18 09:47:55;;;;;;;25.13;19.93;;;3.20;90.30;;;;;;5033790;28;20573;-85
2020/12/18 09:50:21;;;;;;;53.77;13.07;;;3.20;89.60;;;;;;5041505;28;20279;-85
2020/12/18 09:52:47;;;;;;;18.73;10.90;;;3.20;90.30;;;;;;5041720;28;20217;-86
2020/12/18 09:55:14;;;;;;;15.50;9.93;;;3.10;91.60;;;;;;5029068;28;20177;-86
2020/12/18 09:57:39;;;;;;;10.97;9.77;;;3.20;91.60;;;;;;5027071;28;20216;-86
2020/12/18 10:00:06;;;;;;;13.87;10.93;;;3.20;91.60;;;;;;5032188;28;20189;-87
2020/12/18 10:02:32;;;;;;;12.03;10.37;;;3.40;92.00;;;;;;5038095;28;20181;-86
2020/12/18 10:04:58;;;;;;;13.17;11.03;;;3.40;90.90;;;;;;5028845;28;20221;-86
2020/12/18 10:07:23;;;;;;;18.27;10.63;;;3.50;90.60;;;;;;5036779;28;20209;-86
2020/12/18 10:09:52;;;;;;;11.33;9.27;;;3.60;90.40;;;;;;5040214;28;20235;-87
2020/12/18 10:12:17;;;;;;;8.77;7.03;;;3.70;90.50;;;;;;5036736;28;20198;-87
2020/12/18 10:14:43;;;;;;;18.00;5.93;;;3.60;90.10;;;;;;5042902;28;20181;-86
2020/12/18 10:17:09;;;;;;;10.10;6.37;;;3.50;90.80;;;;;;5073173;28;20247;-87
2020/12/18 10:19:35;;;;;;;20.43;6.17;;;3.60;89.70;;;;;;5069900;28;20185;-88
2020/12/18 10:22:02;;;;;;;11.83;6.00;;;3.60;89.50;;;;;;5036665;28;20185;-87
2020/12/18 10:24:27;;;;;;;7.60;5.47;;;3.40;90.60;;;;;;5036883;28;20177;-88
2020/12/18 10:26:54;;;;;;;6.67;5.53;;;3.30;91.80;;;;;;5029303;28;20232;-87
2020/12/18 10:29:19;;;;;;;6.67;5.53;;;3.30;92.50;;;;;;5044136;28;20185;-86
2020/12/18 10:31:45;;;;;;;6.10;5.50;;;3.50;92.00;;;;;;5048041;28;20189;-87
2020/12/18 10:34:11;;;;;;;5.60;5.10;;;3.70;90.80;;;;;;5037477;28;20204;-88
2020/12/18 10:36:36;;;;;;;7.17;6.03;;;3.60;90.40;;;;;;5035649;28;20611;-89
2020/12/18 10:39:03;;;;;;;6.73;5.10;;;3.60;90.90;;;;;;5035361;28;20691;-88
2020/12/18 10:41:29;;;;;;;36.53;6.70;;;3.70;90.70;;;;;;5044357;28;20192;-87
2020/12/18 10:43:59;;;;;;;17.53;6.23;;;3.80;89.60;;;;;;5026645;28;20188;-87
2020/12/18 10:46:25;;;;;;;13.70;5.97;;;3.70;90.10;;;;;;5043655;28;20176;-87
2020/12/18 10:48:51;;;;;;;34.07;7.67;;;3.70;91.50;;;;;;5040607;28;20659;-88
2020/12/18 10:51:16;;;;;;;5.80;5.30;;;3.70;90.40;;;;;;5040057;28;20224;-89
2020/12/18 10:53:42;;;;;;;5.90;5.40;;;3.50;92.30;;;;;;5039871;28;20262;-89
2020/12/18 10:56:08;;;;;;;6.47;5.87;;;3.70;91.10;;;;;;5053327;28;20178;-90
2020/12/18 10:58:34;;;;;;;7.03;6.07;;;3.80;90.30;;;;;;5073864;28;20212;-87
2020/12/18 11:00:59;;;;;;;52.80;9.60;;;3.90;90.60;;;;;;5070273;28;20193;-89
2020/12/18 11:03:25;;;;;;;8.10;7.17;;;3.60;92.40;;;;;;5074183;28;20204;-89
2020/12/18 11:05:51;;;;;;;10.33;6.93;;;3.50;93.70;;;;;;5060920;28;20270;-90
2020/12/18 11:08:16;;;;;;;7.20;6.50;;;3.50;94.30;;;;;;5043245;28;20208;-89
2020/12/18 11:10:42;;;;;;;71.07;10.13;;;3.60;94.10;;;;;;5045419;28;20205;-87
2020/12/18 11:13:08;;;;;;;25.87;8.47;;;3.80;91.90;;;;;;5042777;28;20228;-89
2020/12/18 11:15:33;;;;;;;10.03;8.00;;;3.60;93.00;;;;;;5041436;28;20181;-88
2020/12/18 11:17:59;;;;;;;8.47;7.43;;;3.80;92.90;;;;;;5016484;28;20766;-88
2020/12/18 11:20:25;;;;;;;11.13;8.63;;;4.10;91.70;;;;;;5027862;28;20812;-88
2020/12/18 11:22:57;;;;;;;10.30;8.13;;;4.20;91.70;;;;;;5028678;28;20201;-88
2020/12/18 11:25:23;;;;;;;8.37;7.57;;;4.30;91.80;;;;;;5052205;28;20202;-88
2020/12/18 11:27:49;;;;;;;9.03;8.20;;;4.50;90.80;;;;;;5036226;28;20328;-88
2020/12/18 11:30:16;;;;;;;9.13;8.23;;;4.50;90.30;;;;;;5037315;28;20188;-89
2020/12/18 11:32:41;;;;;;;10.10;8.87;;;4.60;90.50;;;;;;5054754;28;20707;-88
2020/12/18 11:35:07;;;;;;;10.10;8.50;;;4.70;89.70;;;;;;5039934;28;20208;-89
2020/12/18 11:37:33;;;;;;;22.57;10.13;;;4.70;89.00;;;;;;5039841;28;21024;-88
2020/12/18 11:39:59;;;;;;;13.50;10.83;;;4.80;89.20;;;;;;5032177;28;20300;-88
2020/12/18 11:42:24;;;;;;;11.30;10.20;;;4.90;87.80;;;;;;5022065;28;20693;-88
2020/12/18 11:44:50;;;;;;;23.70;11.93;;;4.90;88.50;;;;;;5022143;28;20185;-89
2020/12/18 11:47:16;;;;;;;16.23;12.43;;;4.90;88.50;;;;;;5022594;28;20213;-87
2020/12/18 11:49:42;;;;;;;26.13;14.23;;;4.90;88.80;;;;;;5021525;28;20188;-88
2020/12/18 11:52:07;;;;;;;15.87;14.00;;;4.90;90.00;;;;;;5022861;28;20185;-88
2020/12/18 11:54:33;;;;;;;23.93;14.43;;;4.90;89.70;;;;;;5055777;28;20220;-88
2020/12/18 11:57:34;;;;;;;18.37;15.73;;;4.80;90.00;;;;;;5058361;28;20273;-90
2020/12/18 12:00:43;;;;;;;19.40;16.10;;;4.80;90.30;;;;;;5026768;28;20688;-90
2020/12/18 12:03:22;;;;;;;21.37;16.70;;;5.00;90.40;;;;;;5043073;28;20268;-89
2020/12/18 12:06:12;;;;;;;;;;;;;;;;;;;;;
2020/12/18 12:08:38;;;;;;;18.70;16.70;;;5.10;90.10;;;;;;5081727;22;20239;-86
2020/12/18 12:11:04;;;;;;;18.73;15.73;;;5.00;90.00;;;;;;5067042;28;20219;-87
2020/12/18 12:13:29;;;;;;;20.20;16.67;;;5.00;90.60;;;;;;5065404;28;20228;-86
2020/12/18 12:15:55;;;;;;;18.73;16.63;;;5.10;90.70;;;;;;5066043;28;20192;-86
2020/12/18 12:18:21;;;;;;;22.73;15.67;;;5.10;90.90;;;;;;5066054;28;20185;-87
2020/12/18 12:20:47;;;;;;;24.53;15.50;;;5.00;90.50;;;;;;5066524;28;20207;-86
2020/12/18 12:23:13;;;;;;;19.97;15.43;;;5.10;91.00;;;;;;5065968;28;20208;-86
2020/12/18 12:25:39;;;;;;;16.33;14.60;;;5.10;91.90;;;;;;5064587;28;20254;-86
2020/12/18 12:28:05;;;;;;;23.60;15.87;;;5.00;91.80;;;;;;5051922;28;20240;-86
2020/12/18 12:30:30;;;;;;;31.23;16.20;;;5.10;92.00;;;;;;5044372;28;20211;-86
2020/12/18 12:32:56;;;;;;;12.50;11.27;;;5.10;91.90;;;;;;5043267;28;20256;-86
2020/12/18 12:35:25;;;;;;;12.33;10.53;;;5.10;91.50;;;;;;5045518;28;20182;-85
2020/12/18 12:37:51;;;;;;;28.07;10.67;;;5.20;90.50;;;;;;5044838;28;20169;-88
2020/12/18 12:40:18;;;;;;;11.10;10.00;;;5.10;90.30;;;;;;5043669;28;20172;-87
2020/12/18 12:42:43;;;;;;;11.87;10.27;;;5.00;92.20;;;;;;5043945;28;20284;-87
2020/12/18 12:45:10;;;;;;;14.67;10.13;;;5.00;91.00;;;;;;5043026;28;20619;-86
2020/12/18 12:47:35;;;;;;;21.83;15.77;;;5.10;90.90;;;;;;5042397;28;20611;-87
2020/12/18 12:50:01;;;;;;;20.30;18.00;;;5.20;91.50;;;;;;5054344;28;20188;-88
2020/12/18 12:52:27;;;;;;;16.37;14.63;;;5.10;91.90;;;;;;5064959;28;20216;-87